Time;durP1;ratioP1;P1;durP2;ratioP2;P2;SDS_P1;SDS_P2;PMS_P1;PMS_P2;Temp;Humidity;BMP_temperature;BMP_pressure;BME280_temperature;BME280_humidity;BME280_pressure;Samples;Min_cycle;Max_cycle;Signal;HPM_P1;HPM_P2
2022/07/26 00:02:13;;;;;;;1.30;0.90;;;;;;;29.84;37.58;99110.25;5095455;28;20051;-62
2022/07/26 00:04:39;;;;;;;1.30;0.85;;;;;;;29.81;37.16;99103.47;5101229;28;20039;-59
2022/07/26 00:07:04;;;;;;;1.20;0.90;;;;;;;29.81;37.62;99111.13;5094466;28;20041;-59
2022/07/26 00:09:30;;;;;;;3.30;1.05;;;;;;;29.82;37.16;99115.53;5090017;28;20507;-59
2022/07/26 00:11:55;;;;;;;1.63;0.90;;;;;;;29.81;37.31;99105.50;5106234;28;20546;-62
2022/07/26 00:14:21;;;;;;;0.80;0.70;;;;;;;29.83;37.32;99114.28;5095108;28;20147;-62
2022/07/26 00:16:46;;;;;;;1.42;0.90;;;;;;;29.82;37.46;99107.06;5100169;28;20082;-62
2022/07/26 00:19:12;;;;;;;1.10;0.75;;;;;;;29.80;37.17;99106.75;5100865;28;20043;-59
2022/07/26 00:21:38;;;;;;;1.25;0.90;;;;;;;29.82;37.43;99109.91;5099153;28;20101;-59
2022/07/26 00:24:05;;;;;;;1.40;0.90;;;;;;;29.81;37.07;99111.13;5105790;28;20048;-59
2022/07/26 00:26:30;;;;;;;1.27;0.80;;;;;;;29.80;37.07;99103.91;5109581;28;20043;-59
2022/07/26 00:28:56;;;;;;;1.42;0.90;;;;;;;29.79;37.21;99117.22;5076396;28;20064;-62
2022/07/26 00:31:21;;;;;;;0.95;0.63;;;;;;;29.80;36.94;99101.88;5088141;28;20790;-62
2022/07/26 00:33:47;;;;;;;1.20;0.77;;;;;;;29.80;37.10;99103.91;5085995;28;20098;-59
2022/07/26 00:36:12;;;;;;;1.23;0.90;;;;;;;29.81;37.17;99111.13;5070960;28;20041;-62
2022/07/26 00:38:37;;;;;;;0.90;0.70;;;;;;;29.80;37.14;99109.56;5069026;28;20036;-59
2022/07/26 00:41:04;;;;;;;1.42;0.80;;;;;;;29.80;37.17;99113.16;5069123;28;20040;-62
2022/07/26 00:43:30;;;;;;;0.77;0.63;;;;;;;29.80;36.86;99120.84;5068387;28;20048;-62
2022/07/26 00:45:56;;;;;;;0.93;0.73;;;;;;;29.78;37.24;99109.19;5068854;28;20530;-59
2022/07/26 00:48:21;;;;;;;1.50;0.90;;;;;;;29.78;36.94;99109.97;5086727;28;20457;-62
2022/07/26 00:50:47;;;;;;;1.08;0.77;;;;;;;29.80;36.73;99115.19;5084518;28;20048;-62
2022/07/26 00:53:12;;;;;;;1.10;0.70;;;;;;;29.79;37.06;99116.41;5076432;28;20413;-59
2022/07/26 00:55:38;;;;;;;1.27;0.80;;;;;;;29.79;37.09;99116.41;5091610;28;20043;-61
2022/07/26 00:58:05;;;;;;;1.35;0.75;;;;;;;29.77;36.96;99116.84;5084021;28;20040;-59
2022/07/26 01:00:31;;;;;;;1.00;0.68;;;;;;;29.78;37.05;99123.28;5087946;28;20075;-62
2022/07/26 01:02:59;;;;;;;0.80;0.65;;;;;;;29.77;37.08;99116.84;5087651;28;20040;-62
2022/07/26 01:05:25;;;;;;;0.57;0.50;;;;;;;29.79;36.92;99124.88;5082474;28;20476;-62
2022/07/26 01:07:51;;;;;;;0.75;0.50;;;;;;;29.78;36.82;99126.09;5072377;28;20074;-62
2022/07/26 01:10:17;;;;;;;0.70;0.60;;;;;;;29.77;37.24;99116.06;5079131;28;20420;-62
2022/07/26 01:12:43;;;;;;;1.00;0.60;;;;;;;29.77;37.08;99122.50;5081522;28;20044;-60
2022/07/26 01:15:10;;;;;;;0.80;0.60;;;;;;;29.77;37.16;99121.72;5076749;28;20036;-61
2022/07/26 01:17:36;;;;;;;0.70;0.50;;;;;;;29.75;37.36;99112.91;5083079;28;20132;-58
2022/07/26 01:20:03;;;;;;;0.88;0.70;;;;;;;29.76;36.93;99114.50;5084975;28;20127;-58
2022/07/26 01:22:29;;;;;;;0.80;0.50;;;;;;;29.76;37.28;99114.50;5080906;28;20051;-60
2022/07/26 01:24:54;;;;;;;0.60;0.50;;;;;;;29.75;37.01;99112.91;5075858;28;20040;-61
2022/07/26 01:27:20;;;;;;;0.50;0.50;;;;;;;29.75;37.38;99127.00;5072082;28;20063;-61
2022/07/26 01:29:45;;;;;;;0.57;0.40;;;;;;;29.75;37.32;99130.63;5072915;28;20063;-58
2022/07/26 01:32:10;;;;;;;2.25;0.50;;;;;;;29.74;37.28;99123.41;5082812;28;20041;-58
2022/07/26 01:34:36;;;;;;;1.13;0.60;;;;;;;29.76;37.31;99137.03;5080514;28;20051;-61
2022/07/26 01:37:02;;;;;;;0.60;0.50;;;;;;;29.74;37.29;99131.06;5086282;28;20041;-58
2022/07/26 01:39:27;;;;;;;0.90;0.50;;;;;;;29.76;37.05;99139.88;5079350;28;20500;-61
2022/07/26 01:41:55;;;;;;;0.88;0.60;;;;;;;29.76;37.10;99125.75;5074006;28;20037;-59
2022/07/26 01:44:21;;;;;;;0.65;0.60;;;;;;;29.75;37.58;99141.09;5071316;28;20044;-62
2022/07/26 01:46:47;;;;;;;0.70;0.55;;;;;;;29.75;37.69;99135.47;5078567;28;20036;-62
2022/07/26 01:49:12;;;;;;;0.60;0.40;;;;;;;29.74;37.50;99126.22;5076156;28;20056;-59
2022/07/26 01:51:38;;;;;;;0.88;0.50;;;;;;;29.74;37.78;99123.41;5071399;28;20435;-59
2022/07/26 01:54:04;;;;;;;0.40;0.40;;;;;;;29.74;37.24;99139.53;5080518;28;20044;-59
2022/07/26 01:56:30;;;;;;;0.60;0.50;;;;;;;29.72;37.41;99141.97;5075549;28;20075;-58
2022/07/26 01:58:55;;;;;;;0.95;0.52;;;;;;;29.70;37.79;99119.06;5071433;28;20076;-61
2022/07/26 02:01:21;;;;;;;2.38;0.40;;;;;;;29.73;37.67;99140.75;5088249;28;20036;-62
2022/07/26 02:03:46;;;;;;;0.63;0.40;;;;;;;29.71;37.97;99131.94;5091699;28;20044;-62
2022/07/26 02:06:12;;;;;;;0.40;0.40;;;;;;;29.74;37.42;99133.88;5073749;28;20048;-61
2022/07/26 02:08:37;;;;;;;0.50;0.40;;;;;;;29.72;38.03;99134.34;5071242;28;20401;-58
2022/07/26 02:11:03;;;;;;;0.40;0.40;;;;;;;29.73;38.03;99137.94;5071800;28;20037;-58
2022/07/26 02:13:34;;;;;;;0.95;0.52;;;;;;;29.72;38.26;99136.34;5071175;28;20614;-61
2022/07/26 02:16:01;;;;;;;0.40;0.40;;;;;;;29.71;38.07;99144.00;5072004;28;20052;-61
2022/07/26 02:18:28;;;;;;;0.60;0.50;;;;;;;29.72;37.88;99136.34;5080324;28;20076;-58
2022/07/26 02:20:54;;;;;;;0.65;0.50;;;;;;;29.70;38.30;99141.63;5070997;28;20048;-58
2022/07/26 02:23:21;;;;;;;0.40;0.35;;;;;;;29.70;38.27;99133.97;5082930;28;20044;-61
2022/07/26 02:25:47;;;;;;;0.93;0.60;;;;;;;29.71;38.06;99144.00;5087980;28;20044;-58
2022/07/26 02:28:13;;;;;;;0.40;0.40;;;;;;;29.71;38.61;99140.41;5078537;28;20166;-61
2022/07/26 02:30:38;;;;;;;0.45;0.40;;;;;;;29.71;38.54;99134.75;5070599;28;20041;-57
2022/07/26 02:33:04;;;;;;;0.32;0.32;;;;;;;29.71;38.45;99135.53;5076548;28;20056;-57
2022/07/26 02:35:30;;;;;;;0.43;0.40;;;;;;;29.69;38.38;99145.69;5073336;28;20067;-61
2022/07/26 02:38:08;;;;;;;0.43;0.40;;;;;;;29.70;38.67;99136.00;5078822;28;20067;-57
2022/07/26 02:40:35;;;;;;;0.55;0.47;;;;;;;29.69;38.69;99140.06;5070927;28;20040;-57
2022/07/26 02:43:01;;;;;;;0.30;0.30;;;;;;;29.68;38.72;99136.44;5074764;28;20393;-60
2022/07/26 02:45:27;;;;;;;0.22;0.22;;;;;;;29.69;38.65;99134.41;5080296;28;20075;-61
2022/07/26 02:47:53;;;;;;;0.40;0.40;;;;;;;29.69;38.82;99125.97;5071584;28;20076;-58
2022/07/26 02:50:22;;;;;;;0.40;0.30;;;;;;;29.68;38.75;99124.38;5070205;28;20044;-58
2022/07/26 02:52:49;;;;;;;0.38;0.30;;;;;;;29.67;39.06;99134.06;5073454;28;20044;-58
2022/07/26 02:55:16;;;;;;;0.47;0.40;;;;;;;29.68;39.01;99130.00;5070746;28;20085;-61
2022/07/26 02:57:42;;;;;;;0.47;0.43;;;;;;;29.65;38.67;99123.25;5081221;28;20079;-60
2022/07/26 03:00:10;;;;;;;0.77;0.40;;;;;;;29.67;38.83;99125.63;5071625;28;20124;-58
2022/07/26 03:02:36;;;;;;;0.40;0.40;;;;;;;29.68;38.90;99118.75;5080030;28;20508;-58
2022/07/26 03:05:03;;;;;;;0.38;0.30;;;;;;;29.68;39.12;99125.16;5070274;28;20051;-58
2022/07/26 03:07:28;;;;;;;0.52;0.40;;;;;;;29.65;38.82;99126.06;5080208;28;20051;-58
2022/07/26 03:09:54;;;;;;;0.45;0.40;;;;;;;29.66;39.09;99115.56;5077553;28;20048;-58
2022/07/26 03:12:19;;;;;;;0.50;0.50;;;;;;;29.68;39.13;99122.34;5076129;28;20205;-60
2022/07/26 03:14:45;;;;;;;0.20;0.20;;;;;;;29.66;39.24;99112.75;5078159;28;20135;-61
2022/07/26 03:17:10;;;;;;;0.20;0.20;;;;;;;29.67;39.15;99117.16;5077923;28;20055;-58
2022/07/26 03:19:35;;;;;;;0.40;0.30;;;;;;;29.68;39.33;99111.06;5075743;28;20397;-58
2022/07/26 03:22:01;;;;;;;0.30;0.20;;;;;;;29.65;39.28;99109.16;5090509;28;20131;-61
2022/07/26 03:24:26;;;;;;;0.20;0.20;;;;;;;29.67;39.21;99117.16;5082737;28;20033;-61
2022/07/26 03:26:51;;;;;;;0.70;0.40;;;;;;;29.66;39.19;99112.75;5074566;28;20039;-60
2022/07/26 03:29:17;;;;;;;0.20;0.20;;;;;;;29.68;39.30;99127.19;5080759;28;20397;-61
2022/07/26 03:31:42;;;;;;;0.30;0.30;;;;;;;29.64;39.48;99116.00;5086668;28;20085;-61
2022/07/26 03:34:08;;;;;;;0.90;0.50;;;;;;;29.66;39.55;99112.75;5081995;28;20037;-61
2022/07/26 03:36:33;;;;;;;0.40;0.30;;;;;;;29.62;39.33;99112.03;5083537;28;20047;-58
2022/07/26 03:38:59;;;;;;;0.20;0.20;;;;;;;29.65;39.52;99117.59;5089102;28;20067;-61
2022/07/26 03:41:24;;;;;;;0.25;0.22;;;;;;;29.66;39.42;99107.13;5079642;28;20105;-58
2022/07/26 03:43:50;;;;;;;0.40;0.40;;;;;;;29.66;39.28;99115.56;5088252;28;20415;-58
2022/07/26 03:46:15;;;;;;;0.50;0.40;;;;;;;29.64;39.69;99112.38;5083982;28;20531;-58
2022/07/26 03:48:40;;;;;;;0.45;0.40;;;;;;;29.64;39.56;99118.03;5069600;28;20064;-61
2022/07/26 03:51:06;;;;;;;0.30;0.30;;;;;;;29.66;39.34;99113.56;5069529;28;20118;-58
2022/07/26 03:53:33;;;;;;;0.73;0.25;;;;;;;29.65;39.61;99128.06;5069408;28;20037;-58
2022/07/26 03:58:42;;;;;;;0.20;0.20;;;;;;;29.63;39.33;99113.63;5080757;28;20059;-58
2022/07/26 04:01:08;;;;;;;0.30;0.25;;;;;;;29.63;39.51;99117.22;5069506;28;20428;-61
2022/07/26 04:03:33;;;;;;;0.20;0.20;;;;;;;29.62;39.70;99118.47;5071377;28;20094;-61
2022/07/26 04:05:59;;;;;;;0.13;0.10;;;;;;;29.63;39.48;99110.81;5068951;28;20139;-61
2022/07/26 04:08:25;;;;;;;0.20;0.20;;;;;;;29.59;39.62;99100.44;5077001;28;20497;-58
2022/07/26 04:10:50;;;;;;;0.10;0.10;;;;;;;29.63;39.87;99113.63;5077173;28;20063;-58
2022/07/26 04:13:17;;;;;;;0.40;0.25;;;;;;;29.60;39.80;99113.28;5077716;28;20061;-58
2022/07/26 04:15:43;;;;;;;0.35;0.28;;;;;;;29.63;39.72;99105.16;5073955;28;20055;-58
2022/07/26 04:18:08;;;;;;;0.30;0.20;;;;;;;29.63;39.79;99105.16;5086771;28;20048;-61
2022/07/26 04:20:34;;;;;;;0.32;0.30;;;;;;;29.62;39.91;99112.84;5070693;28;20408;-61
2022/07/26 04:22:59;;;;;;;0.22;0.22;;;;;;;29.62;39.88;99114.88;5068350;28;20428;-61
2022/07/26 04:25:25;;;;;;;0.25;0.25;;;;;;;29.60;40.15;99106.84;5073607;28;20044;-58
2022/07/26 04:27:50;;;;;;;0.20;0.20;;;;;;;29.60;39.81;99104.03;5068913;28;20079;-61
2022/07/26 04:30:16;;;;;;;0.10;0.10;;;;;;;29.59;40.11;99094.78;5072624;28;20411;-61
2022/07/26 04:32:43;;;;;;;0.20;0.20;;;;;;;29.59;39.81;99106.06;5074691;28;20530;-61
2022/07/26 04:35:09;;;;;;;0.43;0.28;;;;;;;29.60;40.00;99101.22;5084876;28;20029;-58
2022/07/26 04:37:39;;;;;;;0.10;0.10;;;;;;;29.58;40.25;99104.50;5073839;28;20028;-58
2022/07/26 04:40:06;;;;;;;0.30;0.30;;;;;;;29.56;40.28;99104.13;5085499;28;20036;-58
2022/07/26 04:42:32;;;;;;;0.10;0.10;;;;;;;29.59;40.04;99110.91;5070189;28;20048;-61
2022/07/26 04:44:57;;;;;;;0.52;0.52;;;;;;;29.59;39.89;99100.44;5072869;28;20522;-57
2022/07/26 04:47:23;;;;;;;0.35;0.30;;;;;;;29.57;40.39;99102.88;5084612;28;20036;-57
2022/07/26 04:49:48;;;;;;;0.10;0.10;;;;;;;29.60;40.25;99101.22;5078697;28;20076;-58
2022/07/26 04:52:13;;;;;;;0.35;0.20;;;;;;;29.60;40.23;99096.38;5076770;28;20032;-61
2022/07/26 04:54:39;;;;;;;0.20;0.20;;;;;;;29.60;40.00;99099.19;5088656;28;20135;-61
2022/07/26 04:57:04;;;;;;;0.30;0.20;;;;;;;29.62;40.28;99092.31;5074658;28;20048;-58
2022/07/26 04:59:29;;;;;;;1.20;0.30;;;;;;;29.62;39.95;99084.66;5077053;28;20150;-59
2022/07/26 05:01:55;;;;;;;0.90;0.20;;;;;;;29.63;39.95;99093.91;5082596;28;20040;-61
2022/07/26 05:04:20;;;;;;;0.22;0.20;;;;;;;29.66;39.99;99104.31;5087015;28;20098;-58
2022/07/26 05:06:46;;;;;;;0.10;0.10;;;;;;;29.68;40.11;99101.81;5073389;28;20518;-61
2022/07/26 05:09:11;;;;;;;0.20;0.20;;;;;;;29.67;39.91;99095.41;5080492;28;20036;-57
2022/07/26 05:11:36;;;;;;;0.10;0.10;;;;;;;29.69;40.02;99100.59;5073119;28;20048;-61
2022/07/26 05:14:02;;;;;;;1.95;0.40;;;;;;;29.69;40.99;99089.31;5068860;28;20533;-51
2022/07/26 05:16:27;;;;;;;1.20;0.20;;;;;;;29.68;40.87;99096.19;5071451;28;20083;-58
2022/07/26 05:18:53;;;;;;;0.65;0.38;;;;;;;29.69;40.95;99090.09;5070677;28;20056;-53
2022/07/26 05:21:18;;;;;;;1.38;0.30;;;;;;;29.69;40.67;99092.13;5068184;28;20044;-58
2022/07/26 05:23:44;;;;;;;2.63;0.30;;;;;;;29.71;40.70;99096.06;5068211;28;20048;-58
2022/07/26 05:26:11;;;;;;;1.30;0.20;;;;;;;29.71;40.61;99092.47;5081686;28;20055;-53
2022/07/26 05:28:38;;;;;;;3.15;0.38;;;;;;;29.69;40.55;99075.22;5073755;28;20050;-54
2022/07/26 05:31:03;;;;;;;0.85;0.28;;;;;;;29.71;40.74;99092.47;5088552;28;20036;-59
2022/07/26 05:33:29;;;;;;;0.28;0.20;;;;;;;29.75;40.77;99118.56;5073756;28;20048;-58
2022/07/26 05:35:54;;;;;;;2.78;0.32;;;;;;;29.76;40.73;99091.94;5075456;28;20043;-56
2022/07/26 05:38:19;;;;;;;0.30;0.30;;;;;;;29.76;40.37;99086.28;5077559;28;20036;-50
2022/07/26 05:40:45;;;;;;;0.28;0.13;;;;;;;29.77;40.37;99087.88;5076637;28;20041;-57
2022/07/26 05:43:10;;;;;;;0.68;0.20;;;;;;;29.78;40.34;99097.91;5082287;28;20430;-57
2022/07/26 05:45:36;;;;;;;0.25;0.20;;;;;;;29.78;40.43;99089.44;5087492;28;20564;-58
2022/07/26 05:48:01;;;;;;;0.25;0.25;;;;;;;29.77;40.21;99087.88;5087535;28;20040;-51
2022/07/26 05:50:27;;;;;;;0.55;0.20;;;;;;;29.77;40.35;99087.88;5081338;28;20411;-50
2022/07/26 05:52:53;;;;;;;0.28;0.20;;;;;;;29.79;40.08;99105.94;5081096;28;20040;-51
2022/07/26 05:55:18;;;;;;;0.88;0.30;;;;;;;29.82;40.44;99092.97;5086521;28;20043;-51
2022/07/26 05:57:46;;;;;;;1.30;0.25;;;;;;;29.82;39.97;99101.44;5071517;28;20083;-57
2022/07/26 06:00:13;;;;;;;0.20;0.20;;;;;;;29.82;40.02;99088.13;5071382;28;20045;-52
2022/07/26 06:02:39;;;;;;;0.57;0.20;;;;;;;29.71;40.26;99096.06;5088542;28;20157;-50
2022/07/26 06:05:05;;;;;;;0.20;0.20;;;;;;;29.48;39.55;99105.50;5091624;28;20419;-57
2022/07/26 06:07:30;;;;;;;0.65;0.50;;;;;;;29.23;39.94;99099.72;5080497;28;20504;-54
2022/07/26 06:09:55;;;;;;;1.83;0.22;;;;;;;29.00;41.40;99098.63;5084502;28;20051;-51
2022/07/26 06:12:21;;;;;;;0.57;0.40;;;;;;;28.91;42.16;99097.69;5077091;28;20101;-49
2022/07/26 06:14:46;;;;;;;0.73;0.40;;;;;;;28.86;42.33;99096.13;5085298;28;20055;-57
2022/07/26 06:17:12;;;;;;;0.30;0.30;;;;;;;28.81;42.75;99107.94;5089535;28;20043;-52
2022/07/26 06:19:37;;;;;;;0.70;0.40;;;;;;;28.78;42.93;99115.22;5089691;28;20523;-57
2022/07/26 06:22:03;;;;;;;0.20;0.20;;;;;;;28.77;43.20;99105.19;5086852;28;20110;-57
2022/07/26 06:24:29;;;;;;;0.60;0.40;;;;;;;28.78;43.27;99100.34;5087661;28;20036;-58
2022/07/26 06:26:56;;;;;;;0.30;0.30;;;;;;;28.79;43.12;99108.38;5087916;28;20504;-58
2022/07/26 06:29:22;;;;;;;0.40;0.40;;;;;;;28.81;43.19;99109.97;5079481;28;20048;-51
2022/07/26 06:31:47;;;;;;;0.30;0.20;;;;;;;28.75;41.45;99116.09;5078358;28;20038;-52
2022/07/26 06:34:13;;;;;;;0.40;0.30;;;;;;;28.60;42.53;99097.94;5076736;28;20484;-53
2022/07/26 06:36:39;;;;;;;0.25;0.25;;;;;;;28.51;43.26;99107.00;5082521;28;20044;-52
2022/07/26 06:39:04;;;;;;;0.45;0.40;;;;;;;28.51;43.55;99112.63;5080714;28;20041;-50
2022/07/26 06:41:30;;;;;;;0.88;0.40;;;;;;;28.57;43.28;99106.44;5080998;28;20032;-53
2022/07/26 06:43:55;;;;;;;0.30;0.30;;;;;;;28.62;43.04;99097.50;5072408;28;20051;-57
2022/07/26 06:46:21;;;;;;;1.30;0.40;;;;;;;28.62;42.58;99111.56;5076255;28;20072;-51
2022/07/26 06:48:47;;;;;;;0.35;0.30;;;;;;;28.54;41.36;99101.72;5091029;28;20499;-59
2022/07/26 06:51:13;;;;;;;1.13;0.40;;;;;;;28.47;42.95;99100.63;5078244;28;20131;-53
2022/07/26 06:53:38;;;;;;;2.72;0.40;;;;;;;28.45;43.49;99107.94;5078789;28;20147;-50
2022/07/26 06:56:04;;;;;;;4.85;0.90;;;;;;;28.41;43.46;99105.19;5084132;28;20052;-57
2022/07/26 06:58:30;;;;;;;3.83;1.00;;;;;;;28.40;43.39;99114.84;5085579;28;20032;-58
2022/07/26 07:00:55;;;;;;;3.67;1.35;;;;;;;28.39;43.32;99099.22;5081831;28;20101;-58
2022/07/26 07:03:21;;;;;;;4.10;1.40;;;;;;;28.32;43.28;99090.91;5077963;28;20048;-51
2022/07/26 07:05:46;;;;;;;2.80;1.17;;;;;;;28.37;43.35;99115.72;5089636;28;20052;-49
2022/07/26 07:08:12;;;;;;;2.75;1.10;;;;;;;28.39;43.22;99113.28;5074426;28;20029;-50
2022/07/26 07:10:38;;;;;;;2.78;1.40;;;;;;;28.36;43.44;99104.91;5074393;28;20080;-49
2022/07/26 07:13:03;;;;;;;3.40;1.17;;;;;;;28.38;43.17;99111.69;5088718;28;20063;-50
2022/07/26 07:15:29;;;;;;;3.50;1.42;;;;;;;28.40;43.21;99111.25;5074984;28;20075;-58
2022/07/26 07:17:54;;;;;;;4.75;1.55;;;;;;;28.38;43.11;99111.69;5082481;28;20445;-59
2022/07/26 07:20:20;;;;;;;5.82;1.30;;;;;;;28.38;43.03;99108.88;5081851;28;20075;-58
2022/07/26 07:22:45;;;;;;;4.45;1.02;;;;;;;28.41;43.23;99093.94;5082566;28;20159;-53
2022/07/26 07:25:11;;;;;;;4.20;1.48;;;;;;;28.44;43.38;99101.53;5073727;28;20444;-58
2022/07/26 07:27:36;;;;;;;4.03;1.35;;;;;;;28.45;43.33;99110.75;5073429;28;20036;-48
2022/07/26 07:30:05;;;;;;;2.83;1.23;;;;;;;28.45;42.97;99091.06;5077963;28;20056;-61
2022/07/26 07:32:30;;;;;;;3.45;1.30;;;;;;;28.38;43.01;99100.44;5057049;28;20048;-48
2022/07/26 07:34:56;;;;;;;5.80;1.67;;;;;;;28.22;43.18;99089.09;5077240;28;20036;-48
2022/07/26 07:37:21;;;;;;;5.25;1.58;;;;;;;28.22;43.25;99097.53;5083316;28;20040;-48
2022/07/26 07:39:48;;;;;;;7.10;1.40;;;;;;;28.16;43.17;99088.81;5084550;28;20052;-49
2022/07/26 07:42:13;;;;;;;7.13;1.35;;;;;;;28.16;42.79;99088.03;5072308;28;20535;-49
2022/07/26 07:44:40;;;;;;;3.60;1.25;;;;;;;28.10;43.17;99089.75;5072175;28;20040;-51
2022/07/26 07:47:07;;;;;;;4.85;2.13;;;;;;;28.05;43.48;99098.69;5080747;28;20040;-51
2022/07/26 07:49:33;;;;;;;6.65;2.50;;;;;;;28.00;43.60;99085.91;5084957;28;20109;-59
2022/07/26 07:51:58;;;;;;;7.00;2.08;;;;;;;27.90;43.64;99093.34;5080929;28;20032;-59
2022/07/26 07:54:24;;;;;;;5.45;1.75;;;;;;;27.88;43.72;99090.19;5085635;28;20128;-57
2022/07/26 07:56:50;;;;;;;9.52;1.95;;;;;;;27.89;43.65;99076.91;5075710;28;20455;-58
2022/07/26 07:59:15;;;;;;;4.13;1.70;;;;;;;27.86;43.82;99075.75;5074228;28;20040;-50
2022/07/26 08:01:40;;;;;;;9.65;1.50;;;;;;;27.90;43.78;99084.13;5081540;28;20831;-50
2022/07/26 08:04:08;;;;;;;5.63;1.50;;;;;;;27.90;43.66;99090.53;5090134;28;20044;-58
2022/07/26 08:06:33;;;;;;;4.13;1.30;;;;;;;27.94;43.52;99088.44;5080375;28;20052;-50
2022/07/26 08:08:58;;;;;;;3.65;1.30;;;;;;;27.92;43.73;99088.06;5071408;28;20419;-59
2022/07/26 08:11:24;;;;;;;3.45;1.30;;;;;;;27.95;43.43;99075.97;5080855;28;20048;-58
2022/07/26 08:13:49;;;;;;;4.07;1.50;;;;;;;27.97;43.49;99078.34;5089418;28;20044;-53
2022/07/26 08:16:15;;;;;;;5.68;1.45;;;;;;;28.02;43.11;99066.59;5082470;28;20036;-53
2022/07/26 08:18:40;;;;;;;2.42;1.13;;;;;;;28.12;43.08;99074.03;5073410;28;20076;-55
2022/07/26 08:21:05;;;;;;;4.43;1.30;;;;;;;28.22;42.76;99066.59;5070955;28;20131;-58
2022/07/26 08:23:31;;;;;;;2.15;1.00;;;;;;;28.27;42.83;99068.88;5072381;28;20044;-58
2022/07/26 08:25:57;;;;;;;4.47;1.33;;;;;;;28.36;42.98;99057.06;5067746;28;20060;-53
2022/07/26 08:28:24;;;;;;;2.92;1.10;;;;;;;28.41;42.94;99079.88;5077090;28;20551;-58
2022/07/26 08:30:49;;;;;;;1.98;0.90;;;;;;;28.44;42.87;99045.25;5099714;28;20434;-58
2022/07/26 08:33:15;;;;;;;3.70;1.10;;;;;;;28.51;42.91;99055.56;5089346;28;20052;-57
2022/07/26 08:35:40;;;;;;;3.15;1.10;;;;;;;28.52;41.62;99062.75;5103294;28;20051;-54
2022/07/26 08:38:05;;;;;;;3.30;1.20;;;;;;;28.40;43.57;99043.72;5088762;28;20047;-53
2022/07/26 08:40:32;;;;;;;3.95;0.90;;;;;;;28.30;43.70;99050.38;5105016;28;20408;-51
2022/07/26 08:42:57;;;;;;;2.58;1.00;;;;;;;28.39;43.50;99059.81;5099870;28;20086;-58
2022/07/26 08:45:26;;;;;;;2.78;1.00;;;;;;;28.48;43.00;99042.34;5099803;28;20048;-58
2022/07/26 08:47:51;;;;;;;4.28;0.90;;;;;;;28.47;41.61;99057.63;5098076;28;20108;-58
2022/07/26 08:50:17;;;;;;;2.63;0.90;;;;;;;28.39;43.40;99047.78;5095008;28;20466;-58
2022/07/26 08:52:43;;;;;;;1.48;0.90;;;;;;;28.35;43.28;99042.22;5091903;28;20504;-53
2022/07/26 08:55:10;;;;;;;2.92;0.95;;;;;;;28.35;43.40;99053.47;5095250;28;20500;-53
2022/07/26 08:57:35;;;;;;;2.20;0.80;;;;;;;28.43;42.74;99045.66;5093642;28;20035;-58
2022/07/26 09:00:23;;;;;;;2.85;0.80;;;;;;;28.45;42.23;99054.47;5092898;28;20048;-60
2022/07/26 09:02:49;;;;;;;1.80;0.80;;;;;;;28.38;43.95;99040.56;5094733;28;20051;-58
2022/07/26 09:05:17;;;;;;;1.33;0.70;;;;;;;28.41;43.84;99057.34;5097552;28;20044;-59
2022/07/26 09:07:44;;;;;;;1.60;0.77;;;;;;;28.52;43.91;99049.47;5091437;28;20394;-59
2022/07/26 09:10:14;;;;;;;3.80;0.85;;;;;;;28.52;43.73;99046.66;5103486;28;20127;-50
2022/07/26 09:12:41;;;;;;;2.17;0.75;;;;;;;28.45;44.87;99058.09;5103618;28;20054;-58
2022/07/26 09:15:17;;;;;;;5.45;0.80;;;;;;;28.45;44.48;99040.41;5095556;28;20051;-54
2022/07/26 09:17:45;;;;;;;2.67;1.00;;;;;;;28.56;43.81;99040.16;5094785;28;20419;-58
2022/07/26 09:20:14;;;;;;;1.42;0.60;;;;;;;28.56;42.69;99051.41;5095607;28;20040;-58
2022/07/26 09:22:58;;;;;;;1.15;0.75;;;;;;;28.48;43.98;99064.84;5098586;28;20491;-52
2022/07/26 09:25:24;;;;;;;2.40;0.85;;;;;;;28.42;43.88;99047.69;5100062;28;20043;-51
2022/07/26 09:27:52;;;;;;;1.65;0.50;;;;;;;28.52;43.23;99020.56;5094732;28;20127;-52
2022/07/26 09:30:18;;;;;;;1.10;0.70;;;;;;;28.55;42.13;99041.38;5101775;28;20499;-57
2022/07/26 09:33:04;;;;;;;0.95;0.60;;;;;;;28.43;43.24;99029.59;5099590;28;20183;-51
2022/07/26 09:35:32;;;;;;;3.38;0.80;;;;;;;28.45;43.81;99034.78;5103866;28;20475;-49
2022/07/26 09:37:58;;;;;;;1.20;0.68;;;;;;;28.48;43.34;99020.63;5097059;28;20039;-52
2022/07/26 09:40:32;;;;;;;0.70;0.60;;;;;;;28.57;43.19;99039.72;5100685;28;20407;-52
2022/07/26 09:43:05;;;;;;;2.10;0.73;;;;;;;28.48;41.83;99034.69;5105891;28;20514;-52
2022/07/26 09:45:33;;;;;;;1.05;0.70;;;;;;;28.40;43.81;99019.19;5106294;28;20035;-50
2022/07/26 09:48:00;;;;;;;1.13;0.50;;;;;;;28.42;43.80;99019.56;5095234;28;20502;-57
2022/07/26 09:50:35;;;;;;;2.30;0.70;;;;;;;28.50;43.74;98997.66;5093776;28;20052;-58
2022/07/26 09:53:11;;;;;;;1.65;0.60;;;;;;;28.49;42.87;99019.38;5099451;28;20523;-58
2022/07/26 09:55:43;;;;;;;1.70;0.80;;;;;;;28.42;42.99;99021.56;5099760;28;20050;-52
2022/07/26 09:58:12;;;;;;;1.17;0.60;;;;;;;28.30;43.92;99009.00;5100565;28;20122;-54
2022/07/26 10:00:38;;;;;;;1.40;0.60;;;;;;;28.36;44.20;99001.63;5100785;28;20044;-57
2022/07/26 10:03:04;;;;;;;1.15;0.70;;;;;;;28.41;44.01;99003.13;5106377;28;20430;-52
2022/07/26 10:05:31;;;;;;;4.40;0.73;;;;;;;28.46;43.04;99011.84;5092341;28;20517;-56
2022/07/26 10:07:58;;;;;;;2.33;0.65;;;;;;;28.44;43.66;99008.69;5093203;28;20040;-57
2022/07/26 10:10:32;;;;;;;3.15;0.63;;;;;;;28.45;44.33;99001.81;5091284;28;20036;-58
2022/07/26 10:13:01;;;;;;;1.27;0.65;;;;;;;28.47;44.05;98993.72;5095322;28;20043;-58
2022/07/26 10:16:00;;;;;;;1.20;0.60;;;;;;;28.54;42.99;98995.56;5093387;28;20040;-58
2022/07/26 10:18:35;;;;;;;2.55;0.55;;;;;;;28.45;43.05;98998.22;5095041;28;20047;-57
2022/07/26 10:21:22;;;;;;;2.05;0.63;;;;;;;28.36;44.20;98993.19;5093745;28;20108;-58
2022/07/26 10:23:52;;;;;;;2.53;0.70;;;;;;;28.39;44.25;98995.13;5105309;28;20385;-54
2022/07/26 10:26:32;;;;;;;0.40;0.40;;;;;;;28.48;43.09;98981.22;5097619;28;20048;-57
2022/07/26 10:29:16;;;;;;;1.30;0.60;;;;;;;28.42;41.92;98994.22;5093282;28;20105;-52
2022/07/26 10:31:42;;;;;;;1.02;0.60;;;;;;;28.33;43.61;98987.63;5091113;28;20039;-58
2022/07/26 10:34:12;;;;;;;2.97;0.70;;;;;;;28.33;44.00;98987.63;5093182;28;20526;-53
2022/07/26 10:36:38;;;;;;;7.50;3.38;;;;;;;28.37;43.94;98994.78;5106152;28;20046;-58
2022/07/26 10:39:06;;;;;;;4.95;2.83;;;;;;;28.44;42.87;98979.75;5097383;28;20047;-52
2022/07/26 10:41:38;;;;;;;5.38;2.72;;;;;;;28.49;42.25;98999.69;5098847;28;20047;-53
2022/07/26 10:44:11;;;;;;;9.03;2.97;;;;;;;28.47;41.01;98988.09;5099879;28;20058;-52
2022/07/26 10:46:57;;;;;;;7.35;2.75;;;;;;;28.40;43.08;98964.97;5096127;28;20322;-58
2022/07/26 10:49:37;;;;;;;5.93;2.70;;;;;;;28.39;43.33;98972.63;5097141;28;20134;-58
2022/07/26 10:52:16;;;;;;;6.45;2.67;;;;;;;28.45;42.24;98967.25;5090211;28;20109;-58
2022/07/26 10:55:00;;;;;;;4.72;2.30;;;;;;;28.40;42.30;98979.81;5090266;28;20150;-58
2022/07/26 10:57:46;;;;;;;5.80;2.15;;;;;;;28.35;43.19;98969.06;5092949;28;20130;-54
2022/07/26 11:00:18;;;;;;;4.38;2.00;;;;;;;28.40;42.81;98977.00;5093380;28;20040;-58
2022/07/26 11:02:47;;;;;;;7.23;1.90;;;;;;;28.48;42.17;98950.28;5099201;28;21450;-58
2022/07/26 11:05:15;;;;;;;2.85;1.80;;;;;;;28.42;41.24;98977.34;5095855;28;20293;-58
2022/07/26 11:08:09;;;;;;;4.15;1.42;;;;;;;28.31;42.49;98968.38;5108350;28;20050;-58
2022/07/26 11:10:45;;;;;;;3.05;1.55;;;;;;;28.30;42.69;98944.31;5091665;28;20048;-52
2022/07/26 11:13:22;;;;;;;2.97;1.60;;;;;;;28.36;42.63;98948.19;5097131;28;20044;-58
2022/07/26 11:15:58;;;;;;;3.40;1.50;;;;;;;28.40;41.43;98946.06;5096249;28;20031;-54
2022/07/26 11:18:31;;;;;;;3.22;1.55;;;;;;;28.38;41.48;98962.59;5097526;28;20051;-55
2022/07/26 11:21:08;;;;;;;4.32;1.40;;;;;;;28.37;42.94;98952.56;5090321;28;20372;-53
2022/07/26 11:23:35;;;;;;;3.05;1.50;;;;;;;28.41;43.10;98950.44;5088623;28;20086;-52
2022/07/26 11:26:17;;;;;;;5.50;1.80;;;;;;;28.47;42.24;98945.88;5089567;28;20048;-56
2022/07/26 11:28:58;;;;;;;2.53;1.30;;;;;;;28.46;42.73;98958.38;5088695;28;20514;-52
2022/07/26 11:31:41;;;;;;;4.68;1.40;;;;;;;28.41;43.36;98961.69;5093979;28;20040;-48
2022/07/26 11:34:07;;;;;;;;;;;;;;;28.54;42.94;98952.59;5091971;28;20552;-57
2022/07/26 11:36:41;;;;;;;4.45;1.10;;;;;;;28.54;41.57;98952.59;5097937;28;19916;-57
2022/07/26 11:39:15;;;;;;;2.15;1.02;;;;;;;28.46;42.20;98940.72;5098205;28;20051;-56